Time;durP1;ratioP1;P1;durP2;ratioP2;P2;SDS_P1;SDS_P2;PMS_P1;PMS_P2;Temp;Humidity;BMP_temperature;BMP_pressure;BME280_temperature;BME280_humidity;BME280_pressure;Samples;Min_cycle;Max_cycle;Signal;HPM_P1;HPM_P2
2023/05/05 00:01:08;;;;;;;20.50;16.80;;;;;;;-128.00;-1.00;-1.00;105759;1251;1003349;-72
2023/05/05 00:03:34;;;;;;;20.20;16.20;;;;;;;-128.00;-1.00;-1.00;105748;1250;1004588;-72
2023/05/05 00:06:01;;;;;;;21.10;17.70;;;;;;;-128.00;-1.00;-1.00;105763;1250;1004498;-72
2023/05/05 00:08:28;;;;;;;23.50;19.90;;;;;;;-128.00;-1.00;-1.00;105718;1251;1004064;-72
2023/05/05 00:10:56;;;;;;;22.20;19.00;;;;;;;-128.00;-1.00;-1.00;105679;1251;1004937;-72
2023/05/05 00:13:23;;;;;;;25.70;20.00;;;;;;;-128.00;-1.00;-1.00;105743;1251;1003819;-72
2023/05/05 00:15:52;;;;;;;22.30;19.70;;;;;;;-128.00;-1.00;-1.00;105731;1251;1004323;-72
2023/05/05 00:18:19;;;;;;;25.40;20.90;;;;;;;-128.00;-1.00;-1.00;105736;1251;1056165;-73
2023/05/05 00:20:47;;;;;;;27.70;21.20;;;;;;;-128.00;-1.00;-1.00;105747;1251;1003920;-72
2023/05/05 00:23:18;;;;;;;24.80;21.30;;;;;;;-128.00;-1.00;-1.00;105718;1251;1004158;-72
2023/05/05 00:25:44;;;;;;;25.60;21.40;;;;;;;-128.00;-1.00;-1.00;105754;1251;1046851;-72
2023/05/05 00:28:12;;;;;;;27.10;23.20;;;;;;;-128.00;-1.00;-1.00;105753;1251;1004493;-72
2023/05/05 00:30:39;;;;;;;24.90;22.10;;;;;;;-128.00;-1.00;-1.00;105737;1251;1003760;-73
2023/05/05 00:33:06;;;;;;;25.10;21.00;;;;;;;-128.00;-1.00;-1.00;105718;1251;1003851;-72
2023/05/05 00:35:33;;;;;;;28.40;22.50;;;;;;;-128.00;-1.00;-1.00;105710;1251;1003827;-72
2023/05/05 00:37:59;;;;;;;26.50;21.30;;;;;;;-128.00;-1.00;-1.00;105813;1251;1003602;-72
2023/05/05 00:40:26;;;;;;;27.20;22.60;;;;;;;-128.00;-1.00;-1.00;105733;1251;1004965;-72
2023/05/05 00:42:53;;;;;;;25.20;21.30;;;;;;;-128.00;-1.00;-1.00;105717;1251;1004561;-72
2023/05/05 00:45:19;;;;;;;27.00;21.90;;;;;;;-128.00;-1.00;-1.00;105718;1251;1005129;-73
2023/05/05 00:47:57;;;;;;;29.10;22.10;;;;;;;-128.00;-1.00;-1.00;105750;1251;1003391;-73
2023/05/05 00:50:27;;;;;;;28.20;22.70;;;;;;;-128.00;-1.00;-1.00;105775;1251;1047370;-73
2023/05/05 00:52:57;;;;;;;26.80;20.80;;;;;;;-128.00;-1.00;-1.00;105748;1251;1061873;-73
2023/05/05 00:55:24;;;;;;;;;;;;;;;-128.00;-1.00;-1.00;105754;1251;1056475;-72
2023/05/05 00:57:52;;;;;;;26.60;20.50;;;;;;;-128.00;-1.00;-1.00;105739;1251;1004501;-72
2023/05/05 01:00:19;;;;;;;27.60;19.70;;;;;;;-128.00;-1.00;-1.00;105730;1251;1004192;-72
2023/05/05 01:02:45;;;;;;;26.30;20.60;;;;;;;-128.00;-1.00;-1.00;105716;1251;1004392;-72
2023/05/05 01:05:14;;;;;;;27.80;21.10;;;;;;;-128.00;-1.00;-1.00;105711;1251;1004833;-73
2023/05/05 01:07:54;;;;;;;22.00;19.70;;;;;;;-128.00;-1.00;-1.00;105591;1251;1055106;-72
2023/05/05 01:10:23;;;;;;;;;;;;;;;-128.00;-1.00;-1.00;105726;1251;1059236;-73
2023/05/05 01:13:27;;;;;;;29.10;23.40;;;;;;;-128.00;-1.00;-1.00;105717;1249;1044497;-72
2023/05/05 01:16:19;;;;;;;27.20;21.30;;;;;;;-128.00;-1.00;-1.00;105755;1251;1046813;-72
2023/05/05 01:19:06;;;;;;;26.60;21.90;;;;;;;-128.00;-1.00;-1.00;105197;1258;1061084;-72
2023/05/05 01:21:40;;;;;;;24.40;20.60;;;;;;;-128.00;-1.00;-1.00;105209;1257;1055575;-73
2023/05/05 01:24:41;;;;;;;24.60;20.70;;;;;;;-128.00;-1.00;-1.00;105233;1257;1058945;-72
2023/05/05 01:27:29;;;;;;;24.20;21.20;;;;;;;-128.00;-1.00;-1.00;104770;1264;1046124;-73
2023/05/05 01:30:15;;;;;;;23.90;19.10;;;;;;;-128.00;-1.00;-1.00;104940;1263;1047336;-73
2023/05/05 01:32:56;;;;;;;26.30;19.00;;;;;;;-128.00;-1.00;-1.00;104883;1264;1061070;-72
2023/05/05 01:35:40;;;;;;;26.70;19.80;;;;;;;-128.00;-1.00;-1.00;104897;1264;1056129;-73
2023/05/05 01:38:13;;;;;;;20.30;17.90;;;;;;;-128.00;-1.00;-1.00;104897;1263;1059570;-73
2023/05/05 01:40:45;;;;;;;25.30;19.80;;;;;;;-128.00;-1.00;-1.00;104859;1263;1045889;-73
2023/05/05 01:43:16;;;;;;;25.00;19.90;;;;;;;-128.00;-1.00;-1.00;104883;1264;1047342;-73
2023/05/05 01:45:45;;;;;;;20.00;17.80;;;;;;;-128.00;-1.00;-1.00;104898;1263;1062549;-71
2023/05/05 01:48:15;;;;;;;21.50;17.60;;;;;;;-128.00;-1.00;-1.00;104904;1264;1057636;-72
2023/05/05 01:50:45;;;;;;;20.10;17.90;;;;;;;-128.00;-1.00;-1.00;104729;1266;1058243;-72
2023/05/05 01:53:13;;;;;;;19.70;17.70;;;;;;;-128.00;-1.00;-1.00;104736;1267;1046952;-72
2023/05/05 01:55:41;;;;;;;21.90;18.30;;;;;;;-128.00;-1.00;-1.00;104871;1262;1003832;-72
2023/05/05 01:58:10;;;;;;;22.50;18.60;;;;;;;-128.00;-1.00;-1.00;105065;1262;1004005;-72
2023/05/05 02:00:37;;;;;;;21.80;17.90;;;;;;;-128.00;-1.00;-1.00;104957;1262;1055980;-73
2023/05/05 02:03:07;;;;;;;21.00;18.40;;;;;;;-128.00;-1.00;-1.00;105158;1255;1005082;-73
2023/05/05 02:05:36;;;;;;;20.70;18.30;;;;;;;-128.00;-1.00;-1.00;105488;1255;1046134;-73
2023/05/05 02:08:05;;;;;;;20.70;18.50;;;;;;;-128.00;-1.00;-1.00;105456;1256;1048281;-73
2023/05/05 02:10:33;;;;;;;22.00;18.80;;;;;;;-128.00;-1.00;-1.00;105484;1255;1061778;-73
2023/05/05 02:13:03;;;;;;;21.70;17.60;;;;;;;-128.00;-1.00;-1.00;105284;1255;1003325;-73
2023/05/05 02:15:30;;;;;;;;;;;;;;;-128.00;-1.00;-1.00;105498;1254;1062186;-72
2023/05/05 02:17:58;;;;;;;22.30;18.60;;;;;;;-128.00;-1.00;-1.00;105475;1255;1004468;-73
2023/05/05 02:20:26;;;;;;;22.90;19.40;;;;;;;-128.00;-1.00;-1.00;105523;1255;1004588;-73
2023/05/05 02:22:53;;;;;;;22.70;20.20;;;;;;;-128.00;-1.00;-1.00;105734;1250;1004098;-73
2023/05/05 02:25:20;;;;;;;22.00;19.10;;;;;;;-128.00;-1.00;-1.00;105774;1251;1004853;-73
2023/05/05 02:27:49;;;;;;;22.10;19.70;;;;;;;-128.00;-1.00;-1.00;105750;1251;1004531;-73
2023/05/05 02:30:19;;;;;;;23.60;19.30;;;;;;;-128.00;-1.00;-1.00;105734;1251;1046170;-72
2023/05/05 02:32:57;;;;;;;24.00;19.90;;;;;;;-128.00;-1.00;-1.00;105757;1251;1047340;-72
2023/05/05 02:35:33;;;;;;;24.10;19.30;;;;;;;-128.00;-1.00;-1.00;105802;1251;1061249;-72
2023/05/05 02:38:04;;;;;;;23.50;20.10;;;;;;;-128.00;-1.00;-1.00;105769;1251;1055480;-72
2023/05/05 02:40:34;;;;;;;23.30;19.60;;;;;;;-128.00;-1.00;-1.00;105726;1251;1059654;-72
2023/05/05 02:43:06;;;;;;;27.50;22.40;;;;;;;-128.00;-1.00;-1.00;105809;1251;1044786;-72
2023/05/05 02:45:33;;;;;;;27.90;25.00;;;;;;;-128.00;-1.00;-1.00;105735;1251;1046816;-72
2023/05/05 02:48:02;;;;;;;27.50;24.50;;;;;;;-128.00;-1.00;-1.00;105747;1251;1003897;-72
2023/05/05 02:50:32;;;;;;;28.60;25.00;;;;;;;-128.00;-1.00;-1.00;105786;1251;1055835;-72
2023/05/05 02:53:00;;;;;;;28.00;24.50;;;;;;;-128.00;-1.00;-1.00;105733;1251;1060158;-72
2023/05/05 02:55:36;;;;;;;24.00;21.10;;;;;;;-128.00;-1.00;-1.00;105518;1251;1047147;-72
2023/05/05 02:58:06;;;;;;;22.40;20.00;;;;;;;-128.00;-1.00;-1.00;105803;1251;1046622;-72
2023/05/05 03:00:40;;;;;;;22.10;19.10;;;;;;;-128.00;-1.00;-1.00;105783;1251;1061850;-73
2023/05/05 03:03:15;;;;;;;22.00;18.60;;;;;;;-128.00;-1.00;-1.00;105729;1251;1056368;-72
2023/05/05 03:05:52;;;;;;;20.90;18.70;;;;;;;-128.00;-1.00;-1.00;105691;1251;1059518;-72
2023/05/05 03:08:47;;;;;;;19.50;17.40;;;;;;;-128.00;-1.00;-1.00;105720;1251;1044455;-72
2023/05/05 03:11:26;;;;;;;21.40;18.60;;;;;;;-128.00;-1.00;-1.00;105194;1258;1046869;-72
2023/05/05 03:14:04;;;;;;;23.40;18.50;;;;;;;-128.00;-1.00;-1.00;105142;1259;1062385;-72
2023/05/05 03:16:38;;;;;;;22.50;18.60;;;;;;;-128.00;-1.00;-1.00;105220;1259;1056728;-73
2023/05/05 03:19:07;;;;;;;22.20;17.40;;;;;;;-128.00;-1.00;-1.00;105188;1259;1059928;-73
2023/05/05 03:21:34;;;;;;;22.30;19.50;;;;;;;-128.00;-1.00;-1.00;105193;1259;1045397;-73
2023/05/05 03:24:14;;;;;;;26.50;20.90;;;;;;;-128.00;-1.00;-1.00;105212;1259;1004369;-73
2023/05/05 03:26:41;;;;;;;26.20;20.30;;;;;;;-128.00;-1.00;-1.00;105218;1259;1061348;-73
2023/05/05 03:29:08;;;;;;;22.80;19.00;;;;;;;-128.00;-1.00;-1.00;105246;1259;1004402;-73
2023/05/05 03:31:34;;;;;;;25.40;19.80;;;;;;;-128.00;-1.00;-1.00;105213;1259;1003676;-73
2023/05/05 03:34:01;;;;;;;23.70;18.40;;;;;;;-128.00;-1.00;-1.00;105141;1258;1004155;-73
2023/05/05 03:36:28;;;;;;;25.00;18.90;;;;;;;-128.00;-1.00;-1.00;105217;1258;1004282;-73
2023/05/05 03:38:55;;;;;;;21.90;19.30;;;;;;;-128.00;-1.00;-1.00;105213;1258;1004035;-73
2023/05/05 03:41:22;;;;;;;20.30;17.40;;;;;;;-128.00;-1.00;-1.00;105165;1258;1003751;-73
2023/05/05 03:43:49;;;;;;;19.90;17.90;;;;;;;-128.00;-1.00;-1.00;105204;1259;1003799;-73
2023/05/05 03:46:16;;;;;;;22.30;19.40;;;;;;;-128.00;-1.00;-1.00;105059;1258;1005131;-72
2023/05/05 03:48:42;;;;;;;25.40;19.90;;;;;;;-128.00;-1.00;-1.00;105546;1251;1003258;-72
2023/05/05 03:51:09;;;;;;;22.50;19.40;;;;;;;-128.00;-1.00;-1.00;105766;1251;1003549;-72
2023/05/05 03:53:35;;;;;;;21.40;18.60;;;;;;;-128.00;-1.00;-1.00;105806;1250;1004054;-73
2023/05/05 03:56:02;;;;;;;23.30;18.10;;;;;;;-128.00;-1.00;-1.00;105715;1251;1004074;-72
2023/05/05 03:58:29;;;;;;;21.90;18.50;;;;;;;-128.00;-1.00;-1.00;105660;1251;1003688;-72
2023/05/05 04:00:56;;;;;;;25.70;19.30;;;;;;;-128.00;-1.00;-1.00;105768;1251;1004153;-72
2023/05/05 04:03:23;;;;;;;22.80;20.10;;;;;;;-128.00;-1.00;-1.00;105786;1251;1004053;-72
2023/05/05 04:05:49;;;;;;;28.30;20.60;;;;;;;-128.00;-1.00;-1.00;105795;1251;1004585;-74
2023/05/05 04:08:16;;;;;;;30.00;20.50;;;;;;;-128.00;-1.00;-1.00;105731;1251;1005037;-72
2023/05/05 04:10:42;;;;;;;30.10;21.40;;;;;;;-128.00;-1.00;-1.00;105739;1251;1004885;-73
2023/05/05 04:13:09;;;;;;;24.30;20.60;;;;;;;-128.00;-1.00;-1.00;105793;1251;1004345;-73
2023/05/05 04:15:35;;;;;;;22.80;19.30;;;;;;;-128.00;-1.00;-1.00;105576;1253;1004265;-73
2023/05/05 04:18:02;;;;;;;27.80;21.20;;;;;;;-128.00;-1.00;-1.00;105753;1251;1003922;-73
2023/05/05 04:20:28;;;;;;;25.70;21.90;;;;;;;-128.00;-1.00;-1.00;105587;1252;1004540;-73
2023/05/05 04:22:55;;;;;;;27.60;22.10;;;;;;;-128.00;-1.00;-1.00;105740;1251;1005741;-73
2023/05/05 04:25:21;;;;;;;32.80;27.10;;;;;;;-128.00;-1.00;-1.00;105757;1251;1004099;-73
2023/05/05 04:27:48;;;;;;;26.50;23.70;;;;;;;-128.00;-1.00;-1.00;105814;1250;1004822;-73
2023/05/05 04:30:14;;;;;;;21.60;19.30;;;;;;;-128.00;-1.00;-1.00;105765;1251;1003860;-73
2023/05/05 04:32:40;;;;;;;19.40;16.00;;;;;;;-128.00;-1.00;-1.00;105764;1251;1004550;-73
2023/05/05 04:35:07;;;;;;;19.80;15.90;;;;;;;-128.00;-1.00;-1.00;105736;1251;1004629;-73
2023/05/05 04:37:34;;;;;;;24.70;22.20;;;;;;;-128.00;-1.00;-1.00;105759;1251;1004136;-72
2023/05/05 04:40:00;;;;;;;24.10;21.50;;;;;;;-128.00;-1.00;-1.00;105776;1251;1004593;-72
2023/05/05 04:42:27;;;;;;;26.50;23.80;;;;;;;-128.00;-1.00;-1.00;105774;1251;1004676;-73
2023/05/05 04:44:53;;;;;;;24.20;21.90;;;;;;;-128.00;-1.00;-1.00;105755;1251;1003995;-72
2023/05/05 04:47:20;;;;;;;25.20;22.60;;;;;;;-128.00;-1.00;-1.00;105404;1251;1004575;-72
2023/05/05 04:49:47;;;;;;;23.80;21.50;;;;;;;-128.00;-1.00;-1.00;105817;1251;1004143;-72
2023/05/05 04:52:13;;;;;;;21.30;19.20;;;;;;;-128.00;-1.00;-1.00;105763;1251;1004558;-72
2023/05/05 04:54:40;;;;;;;20.40;18.20;;;;;;;-128.00;-1.00;-1.00;105788;1251;1004600;-72
2023/05/05 04:57:06;;;;;;;17.10;15.20;;;;;;;-128.00;-1.00;-1.00;105744;1251;1004957;-72
2023/05/05 04:59:33;;;;;;;17.40;15.70;;;;;;;-128.00;-1.00;-1.00;105749;1251;1003469;-73
2023/05/05 05:02:00;;;;;;;16.80;14.90;;;;;;;-128.00;-1.00;-1.00;105490;1251;1004709;-72
2023/05/05 05:04:27;;;;;;;17.50;13.80;;;;;;;-128.00;-1.00;-1.00;105772;1251;1003609;-73
2023/05/05 05:06:53;;;;;;;15.10;13.40;;;;;;;-128.00;-1.00;-1.00;105614;1251;1004162;-73
2023/05/05 05:09:19;;;;;;;16.40;13.50;;;;;;;-128.00;-1.00;-1.00;105730;1251;1003219;-72
2023/05/05 05:11:46;;;;;;;45.40;36.00;;;;;;;-128.00;-1.00;-1.00;105618;1251;1004082;-73
2023/05/05 05:14:13;;;;;;;21.20;19.00;;;;;;;-128.00;-1.00;-1.00;105796;1251;1005078;-73
2023/05/05 05:16:39;;;;;;;27.40;24.70;;;;;;;-128.00;-1.00;-1.00;105603;1253;1003930;-73
2023/05/05 05:19:05;;;;;;;23.70;21.20;;;;;;;-128.00;-1.00;-1.00;105833;1250;1003188;-73
2023/05/05 05:21:32;;;;;;;28.90;26.10;;;;;;;-128.00;-1.00;-1.00;105570;1251;1004039;-73
2023/05/05 05:23:58;;;;;;;19.80;16.40;;;;;;;-128.00;-1.00;-1.00;105803;1251;1003913;-73
2023/05/05 05:26:26;;;;;;;22.00;14.00;;;;;;;-128.00;-1.00;-1.00;105801;1251;1004126;-74
2023/05/05 05:28:52;;;;;;;22.60;18.70;;;;;;;-128.00;-1.00;-1.00;105779;1251;1004181;-73
2023/05/05 05:31:19;;;;;;;22.70;19.30;;;;;;;-128.00;-1.00;-1.00;105794;1251;1004483;-73
2023/05/05 05:33:45;;;;;;;17.20;15.10;;;;;;;-128.00;-1.00;-1.00;105752;1251;1004788;-72
2023/05/05 05:36:12;;;;;;;17.20;15.30;;;;;;;-128.00;-1.00;-1.00;105793;1251;1004874;-74
2023/05/05 05:38:38;;;;;;;17.70;14.50;;;;;;;-128.00;-1.00;-1.00;105679;1252;1004081;-73
2023/05/05 05:41:06;;;;;;;16.60;13.50;;;;;;;-128.00;-1.00;-1.00;105608;1252;1003579;-72
2023/05/05 05:43:33;;;;;;;18.50;13.20;;;;;;;-128.00;-1.00;-1.00;105745;1252;1004929;-73
2023/05/05 05:45:59;;;;;;;15.10;13.60;;;;;;;-128.00;-1.00;-1.00;105438;1251;1005271;-72
2023/05/05 05:48:27;;;;;;;14.20;12.70;;;;;;;-128.00;-1.00;-1.00;105727;1251;1004639;-73
2023/05/05 05:50:55;;;;;;;15.70;13.70;;;;;;;-128.00;-1.00;-1.00;105786;1251;1003754;-72
2023/05/05 05:53:22;;;;;;;15.20;13.10;;;;;;;-128.00;-1.00;-1.00;105773;1250;1005412;-72
2023/05/05 05:55:48;;;;;;;13.60;12.20;;;;;;;-128.00;-1.00;-1.00;105801;1251;1005085;-73
2023/05/05 05:58:16;;;;;;;14.40;11.90;;;;;;;-128.00;-1.00;-1.00;105791;1251;1004486;-73
2023/05/05 06:00:42;;;;;;;14.60;11.80;;;;;;;-128.00;-1.00;-1.00;105759;1251;1003973;-73
2023/05/05 06:03:09;;;;;;;15.70;12.40;;;;;;;-128.00;-1.00;-1.00;105773;1251;1003927;-73
2023/05/05 06:05:35;;;;;;;13.40;11.60;;;;;;;-128.00;-1.00;-1.00;105792;1251;1004947;-73
2023/05/05 06:08:02;;;;;;;12.90;11.20;;;;;;;-128.00;-1.00;-1.00;105795;1251;1004209;-73
2023/05/05 06:10:28;;;;;;;13.40;11.10;;;;;;;-128.00;-1.00;-1.00;105755;1251;1003543;-72
2023/05/05 06:12:55;;;;;;;11.40;10.30;;;;;;;-128.00;-1.00;-1.00;105801;1251;1005493;-72
2023/05/05 06:15:21;;;;;;;16.50;10.80;;;;;;;-128.00;-1.00;-1.00;105775;1251;1003450;-72
2023/05/05 06:17:48;;;;;;;15.10;11.00;;;;;;;-128.00;-1.00;-1.00;105806;1251;1004211;-72
2023/05/05 06:20:14;;;;;;;12.10;10.20;;;;;;;-128.00;-1.00;-1.00;105813;1251;1004612;-73
2023/05/05 06:22:41;;;;;;;11.30;10.10;;;;;;;-128.00;-1.00;-1.00;105785;1251;1004325;-74
2023/05/05 06:25:07;;;;;;;13.80;9.90;;;;;;;-128.00;-1.00;-1.00;105773;1251;1005365;-73
2023/05/05 06:27:34;;;;;;;13.10;9.90;;;;;;;-128.00;-1.00;-1.00;105590;1251;1004677;-73
2023/05/05 06:30:00;;;;;;;10.80;9.80;;;;;;;-128.00;-1.00;-1.00;105828;1251;1004643;-73
2023/05/05 06:32:27;;;;;;;11.90;10.00;;;;;;;-128.00;-1.00;-1.00;105818;1251;1003889;-72
2023/05/05 06:34:53;;;;;;;9.60;8.70;;;;;;;-128.00;-1.00;-1.00;105796;1251;1003662;-72
2023/05/05 06:37:20;;;;;;;11.40;9.20;;;;;;;-128.00;-1.00;-1.00;105815;1251;1004215;-73
2023/05/05 06:39:46;;;;;;;18.80;17.00;;;;;;;-128.00;-1.00;-1.00;105811;1251;1004630;-73
2023/05/05 06:42:13;;;;;;;14.40;13.10;;;;;;;-128.00;-1.00;-1.00;105798;1251;1004009;-72
2023/05/05 06:44:39;;;;;;;12.00;10.80;;;;;;;-128.00;-1.00;-1.00;105792;1251;1004730;-72
2023/05/05 06:47:06;;;;;;;12.90;11.70;;;;;;;-128.00;-1.00;-1.00;105771;1251;1003853;-72
2023/05/05 06:49:33;;;;;;;12.20;11.00;;;;;;;-128.00;-1.00;-1.00;105761;1251;1003211;-72
2023/05/05 06:51:59;;;;;;;15.00;10.20;;;;;;;-128.00;-1.00;-1.00;105827;1250;1005029;-72
2023/05/05 06:54:26;;;;;;;12.70;10.50;;;;;;;-128.00;-1.00;-1.00;105788;1251;1003755;-72
2023/05/05 06:56:52;;;;;;;12.40;9.70;;;;;;;-128.00;-1.00;-1.00;105674;1251;1003483;-73
2023/05/05 06:59:19;;;;;;;13.00;10.30;;;;;;;-128.00;-1.00;-1.00;105762;1251;1003599;-72
2023/05/05 07:01:45;;;;;;;10.80;9.70;;;;;;;-128.00;-1.00;-1.00;105782;1251;1004639;-72
2023/05/05 07:04:11;;;;;;;13.60;9.80;;;;;;;-128.00;-1.00;-1.00;105786;1251;1005202;-73
2023/05/05 07:06:38;;;;;;;10.80;9.20;;;;;;;-128.00;-1.00;-1.00;105799;1250;1005751;-71
2023/05/05 07:09:04;;;;;;;8.50;7.70;;;;;;;-128.00;-1.00;-1.00;105771;1251;1003265;-73
2023/05/05 07:11:31;;;;;;;8.50;6.40;;;;;;;-128.00;-1.00;-1.00;105656;1251;1004044;-72
2023/05/05 07:13:57;;;;;;;10.60;8.40;;;;;;;-128.00;-1.00;-1.00;105735;1251;1003398;-72
2023/05/05 07:16:25;;;;;;;9.90;8.30;;;;;;;-128.00;-1.00;-1.00;105801;1251;1003830;-72
2023/05/05 07:18:52;;;;;;;12.50;8.30;;;;;;;-128.00;-1.00;-1.00;105836;1251;1004880;-73
2023/05/05 07:21:18;;;;;;;12.20;7.90;;;;;;;-128.00;-1.00;-1.00;105795;1251;1004541;-73
2023/05/05 07:23:46;;;;;;;8.40;7.50;;;;;;;-128.00;-1.00;-1.00;105763;1250;1003716;-72
2023/05/05 07:26:14;;;;;;;9.50;8.60;;;;;;;-128.00;-1.00;-1.00;105774;1254;1004554;-72
2023/05/05 07:28:41;;;;;;;10.00;8.80;;;;;;;-128.00;-1.00;-1.00;105824;1251;1004266;-73
2023/05/05 07:31:08;;;;;;;11.60;8.80;;;;;;;-128.00;-1.00;-1.00;105765;1251;1004444;-73
2023/05/05 07:33:34;;;;;;;9.80;8.60;;;;;;;-128.00;-1.00;-1.00;105752;1252;1004477;-73
2023/05/05 07:36:01;;;;;;;9.20;8.10;;;;;;;-128.00;-1.00;-1.00;105730;1251;1003626;-72
2023/05/05 07:38:27;;;;;;;8.90;7.70;;;;;;;-128.00;-1.00;-1.00;105757;1253;1004129;-72
2023/05/05 07:40:54;;;;;;;12.40;9.40;;;;;;;-128.00;-1.00;-1.00;105727;1251;1003962;-72
2023/05/05 07:43:20;;;;;;;8.00;7.20;;;;;;;-128.00;-1.00;-1.00;105769;1253;1003980;-72
2023/05/05 07:45:47;;;;;;;8.50;7.20;;;;;;;-128.00;-1.00;-1.00;105627;1251;1003549;-72
2023/05/05 07:48:13;;;;;;;8.10;6.30;;;;;;;-128.00;-1.00;-1.00;105723;1251;1003996;-72
2023/05/05 07:50:40;;;;;;;8.70;7.20;;;;;;;-128.00;-1.00;-1.00;105764;1251;1003866;-72
2023/05/05 07:53:07;;;;;;;8.70;7.20;;;;;;;-128.00;-1.00;-1.00;105808;1251;1004617;-72
2023/05/05 07:55:33;;;;;;;11.20;7.40;;;;;;;-128.00;-1.00;-1.00;105797;1251;1004922;-74
2023/05/05 07:58:00;;;;;;;12.40;7.50;;;;;;;-128.00;-1.00;-1.00;105811;1251;1005188;-72
2023/05/05 08:00:26;;;;;;;9.80;6.30;;;;;;;-128.00;-1.00;-1.00;105737;1251;1004133;-73
2023/05/05 08:02:53;;;;;;;8.20;6.50;;;;;;;-128.00;-1.00;-1.00;105858;1250;1003631;-72
2023/05/05 08:05:19;;;;;;;7.40;6.60;;;;;;;-128.00;-1.00;-1.00;105826;1250;1004019;-73
2023/05/05 08:07:46;;;;;;;8.00;6.80;;;;;;;-128.00;-1.00;-1.00;105872;1250;1004156;-72
2023/05/05 08:10:13;;;;;;;7.00;6.30;;;;;;;-128.00;-1.00;-1.00;105880;1250;1004640;-73
2023/05/05 08:12:39;;;;;;;6.60;5.60;;;;;;;-128.00;-1.00;-1.00;105844;1250;1003943;-72
2023/05/05 08:15:06;;;;;;;5.70;5.20;;;;;;;-128.00;-1.00;-1.00;105857;1250;1004916;-72
2023/05/05 08:17:43;;;;;;;7.20;6.50;;;;;;;-128.00;-1.00;-1.00;105854;1249;1004018;-72
2023/05/05 08:20:10;;;;;;;6.70;5.90;;;;;;;-128.00;-1.00;-1.00;105902;1250;1062229;-72
2023/05/05 08:22:37;;;;;;;7.30;5.80;;;;;;;-128.00;-1.00;-1.00;105537;1250;1004346;-73
2023/05/05 08:25:04;;;;;;;5.40;4.90;;;;;;;-128.00;-1.00;-1.00;105852;1250;1004430;-73
2023/05/05 08:27:34;;;;;;;7.40;5.20;;;;;;;-128.00;-1.00;-1.00;105534;1253;1004408;-73
2023/05/05 08:30:02;;;;;;;5.90;4.90;;;;;;;-128.00;-1.00;-1.00;105603;1254;1047627;-72
2023/05/05 08:32:28;;;;;;;5.30;4.80;;;;;;;-128.00;-1.00;-1.00;105562;1254;1004239;-73
2023/05/05 08:34:55;;;;;;;6.00;4.40;;;;;;;-128.00;-1.00;-1.00;105574;1254;1003993;-73
2023/05/05 08:37:22;;;;;;;6.50;4.70;;;;;;;-128.00;-1.00;-1.00;105564;1254;1003869;-71
2023/05/05 08:39:48;;;;;;;5.40;4.70;;;;;;;-128.00;-1.00;-1.00;105576;1254;1003669;-73
2023/05/05 08:42:15;;;;;;;5.10;4.10;;;;;;;-128.00;-1.00;-1.00;105528;1254;1003192;-73
2023/05/05 08:44:41;;;;;;;6.90;4.70;;;;;;;-128.00;-1.00;-1.00;105560;1253;1004433;-72
2023/05/05 08:47:10;;;;;;;5.10;4.40;;;;;;;-128.00;-1.00;-1.00;105428;1254;1004260;-72
2023/05/05 08:49:47;;;;;;;7.00;4.60;;;;;;;-128.00;-1.00;-1.00;105253;1254;1059213;-72
2023/05/05 08:52:17;;;;;;;4.40;4.00;;;;;;;-128.00;-1.00;-1.00;105509;1254;1044932;-72
2023/05/05 08:54:50;;;;;;;6.70;4.90;;;;;;;-128.00;-1.00;-1.00;105567;1254;1047944;-72
2023/05/05 08:57:23;;;;;;;4.90;4.30;;;;;;;-128.00;-1.00;-1.00;105602;1253;1060755;-72
2023/05/05 08:59:51;;;;;;;5.60;4.20;;;;;;;-128.00;-1.00;-1.00;105592;1254;1055615;-72
2023/05/05 09:02:22;;;;;;;5.10;4.10;;;;;;;-128.00;-1.00;-1.00;105540;1254;1004703;-72
2023/05/05 09:04:50;;;;;;;6.90;4.00;;;;;;;-128.00;-1.00;-1.00;105640;1250;1046470;-73
2023/05/05 09:07:17;;;;;;;4.40;3.40;;;;;;;-128.00;-1.00;-1.00;105892;1250;1004078;-72
2023/05/05 09:09:44;;;;;;;3.70;3.30;;;;;;;-128.00;-1.00;-1.00;105850;1250;1003434;-73
2023/05/05 09:12:11;;;;;;;4.00;3.60;;;;;;;-128.00;-1.00;-1.00;105885;1249;1004030;-72
2023/05/05 09:14:37;;;;;;;4.60;3.00;;;;;;;-128.00;-1.00;-1.00;105777;1250;1004085;-72
2023/05/05 09:17:04;;;;;;;3.90;3.00;;;;;;;-128.00;-1.00;-1.00;105588;1250;1003375;-73
2023/05/05 09:19:31;;;;;;;4.80;3.20;;;;;;;-128.00;-1.00;-1.00;105716;1250;1003740;-72
2023/05/05 09:21:57;;;;;;;3.90;3.30;;;;;;;-128.00;-1.00;-1.00;105836;1250;1004144;-72
2023/05/05 09:24:24;;;;;;;5.00;2.80;;;;;;;-128.00;-1.00;-1.00;105849;1250;1004885;-72
2023/05/05 09:26:50;;;;;;;3.80;2.70;;;;;;;-128.00;-1.00;-1.00;105817;1250;1004546;-73
2023/05/05 09:29:18;;;;;;;4.30;3.20;;;;;;;-128.00;-1.00;-1.00;105883;1250;1004485;-72
2023/05/05 09:32:07;;;;;;;5.30;3.40;;;;;;;-128.00;-1.00;-1.00;105894;1250;1004239;-72
2023/05/05 09:34:34;;;;;;;3.40;3.10;;;;;;;-128.00;-1.00;-1.00;105652;1250;1063181;-72
2023/05/05 09:37:00;;;;;;;3.30;2.90;;;;;;;-128.00;-1.00;-1.00;105836;1250;1004969;-72
2023/05/05 09:39:27;;;;;;;8.20;2.90;;;;;;;-128.00;-1.00;-1.00;105550;1250;1003456;-72
2023/05/05 09:41:54;;;;;;;3.90;3.50;;;;;;;-128.00;-1.00;-1.00;105772;1250;1003766;-72
2023/05/05 09:44:36;;;;;;;3.90;3.50;;;;;;;-128.00;-1.00;-1.00;105723;1250;1004406;-72
2023/05/05 09:47:03;;;;;;;6.00;3.00;;;;;;;-128.00;-1.00;-1.00;105880;1250;1063116;-72
2023/05/05 09:49:30;;;;;;;3.20;2.60;;;;;;;-128.00;-1.00;-1.00;105886;1250;1004204;-73
2023/05/05 09:51:57;;;;;;;3.10;2.20;;;;;;;-128.00;-1.00;-1.00;105807;1250;1004006;-72
2023/05/05 09:54:28;;;;;;;3.90;2.80;;;;;;;-128.00;-1.00;-1.00;105856;1250;1004232;-72
2023/05/05 09:56:56;;;;;;;4.10;2.40;;;;;;;-128.00;-1.00;-1.00;105714;1250;1048150;-72
2023/05/05 09:59:23;;;;;;;11.20;3.70;;;;;;;-128.00;-1.00;-1.00;105866;1250;1003963;-72
2023/05/05 10:01:50;;;;;;;8.20;3.00;;;;;;;-128.00;-1.00;-1.00;105783;1250;1003820;-72
2023/05/05 10:04:27;;;;;;;5.00;2.80;;;;;;;-128.00;-1.00;-1.00;105836;1250;1004416;-72
2023/05/05 10:06:55;;;;;;;3.80;2.50;;;;;;;-128.00;-1.00;-1.00;105798;1250;1044991;-73
2023/05/05 10:09:23;;;;;;;3.30;2.50;;;;;;;-128.00;-1.00;-1.00;105881;1250;1004694;-72
2023/05/05 10:11:51;;;;;;;3.80;2.50;;;;;;;-128.00;-1.00;-1.00;105858;1250;1004158;-73
2023/05/05 10:14:18;;;;;;;5.70;3.10;;;;;;;-128.00;-1.00;-1.00;105333;1251;1004935;-73
2023/05/05 10:16:50;;;;;;;6.80;3.10;;;;;;;-128.00;-1.00;-1.00;105819;1250;1004165;-73
2023/05/05 10:19:22;;;;;;;3.80;3.20;;;;;;;-128.00;-1.00;-1.00;105737;1250;1045108;-73
2023/05/05 10:22:02;;;;;;;4.40;2.90;;;;;;;-128.00;-1.00;-1.00;105788;1250;1046767;-73
2023/05/05 10:24:42;;;;;;;6.40;3.60;;;;;;;-128.00;-1.00;-1.00;105911;1250;1060779;-73
2023/05/05 10:27:16;;;;;;;4.40;3.40;;;;;;;-128.00;-1.00;-1.00;105819;1250;1055441;-73
2023/05/05 10:30:06;;;;;;;4.00;3.30;;;;;;;-128.00;-1.00;-1.00;105830;1250;1059059;-72
2023/05/05 10:32:42;;;;;;;5.90;3.50;;;;;;;-128.00;-1.00;-1.00;105843;1250;1045513;-73
2023/05/05 10:35:12;;;;;;;3.60;3.20;;;;;;;-128.00;-1.00;-1.00;105546;1254;1046544;-73
2023/05/05 10:37:40;;;;;;;5.10;3.80;;;;;;;-128.00;-1.00;-1.00;105318;1254;1061421;-73
2023/05/05 10:40:09;;;;;;;4.60;3.90;;;;;;;-128.00;-1.00;-1.00;105544;1254;1003220;-73
2023/05/05 10:42:38;;;;;;;5.10;3.30;;;;;;;-128.00;-1.00;-1.00;105365;1254;1060079;-72
2023/05/05 10:45:06;;;;;;;4.30;3.10;;;;;;;-128.00;-1.00;-1.00;105383;1254;1044998;-73
2023/05/05 10:47:34;;;;;;;4.20;3.50;;;;;;;-128.00;-1.00;-1.00;105548;1254;1003919;-73
2023/05/05 10:50:20;;;;;;;4.60;2.50;;;;;;;-128.00;-1.00;-1.00;105360;1254;1061631;-72
2023/05/05 10:53:07;;;;;;;3.10;2.80;;;;;;;-128.00;-1.00;-1.00;105587;1254;1055769;-72
2023/05/05 10:55:45;;;;;;;4.40;3.10;;;;;;;-128.00;-1.00;-1.00;105578;1254;1059919;-72
2023/05/05 10:58:48;;;;;;;4.30;2.90;;;;;;;-128.00;-1.00;-1.00;105509;1254;1044942;-72
2023/05/05 11:01:32;;;;;;;3.60;2.90;;;;;;;-128.00;-1.00;-1.00;104888;1263;1047134;-72
2023/05/05 11:04:18;;;;;;;9.00;3.50;;;;;;;-128.00;-1.00;-1.00;105001;1266;1061379;-72
2023/05/05 11:07:09;;;;;;;4.40;3.70;;;;;;;-128.00;-1.00;-1.00;105138;1260;1056316;-72
2023/05/05 11:09:53;;;;;;;6.60;3.10;;;;;;;-128.00;-1.00;-1.00;105176;1260;1059140;-72
2023/05/05 11:13:19;;;;;;;7.90;3.30;;;;;;;20.67;41.21;99294.60;102581;1292;600594;-72
2023/05/05 11:15:48;;;;;;;5.50;3.70;;;;;;;20.67;41.06;99294.39;104987;1268;59276;-72
2023/05/05 11:18:35;;;;;;;3.70;3.10;;;;;;;20.75;41.18;99292.80;104837;1271;59335;-73
2023/05/05 11:21:06;;;;;;;2.70;2.50;;;;;;;20.78;40.58;99291.80;105058;1269;62975;-72